sensor_id;sensor_type;location;lat;lon;timestamp;P1;durP1;ratioP1;P2;durP2;ratioP2
19673;SDS011;9986;50.610;7.230;2023-04-21T00:01:16;13.60;;;11.30;;
19673;SDS011;9986;50.610;7.230;2023-04-21T00:03:59;12.00;;;10.70;;
19673;SDS011;9986;50.610;7.230;2023-04-21T00:06:39;12.50;;;11.17;;
19673;SDS011;9986;50.610;7.230;2023-04-21T00:09:19;13.30;;;11.90;;
19673;SDS011;9986;50.610;7.230;2023-04-21T00:14:31;14.70;;;12.17;;
19673;SDS011;9986;50.610;7.230;2023-04-21T00:17:11;14.30;;;12.80;;
19673;SDS011;9986;50.610;7.230;2023-04-21T00:19:50;14.13;;;12.30;;
19673;SDS011;9986;50.610;7.230;2023-04-21T00:22:31;14.33;;;12.80;;
19673;SDS011;9986;50.610;7.230;2023-04-21T00:25:12;16.10;;;13.27;;
19673;SDS011;9986;50.610;7.230;2023-04-21T00:27:52;16.60;;;13.40;;
19673;SDS011;9986;50.610;7.230;2023-04-21T00:30:32;14.97;;;13.20;;
19673;SDS011;9986;50.610;7.230;2023-04-21T00:33:12;15.73;;;13.67;;
19673;SDS011;9986;50.610;7.230;2023-04-21T00:38:21;14.70;;;13.20;;
19673;SDS011;9986;50.610;7.230;2023-04-21T00:41:01;14.67;;;12.80;;
19673;SDS011;9986;50.610;7.230;2023-04-21T00:43:59;16.80;;;13.27;;
19673;SDS011;9986;50.610;7.230;2023-04-21T00:46:46;14.73;;;12.93;;
19673;SDS011;9986;50.610;7.230;2023-04-21T00:49:26;15.20;;;12.67;;
19673;SDS011;9986;50.610;7.230;2023-04-21T00:52:06;14.07;;;12.57;;
19673;SDS011;9986;50.610;7.230;2023-04-21T00:54:46;14.77;;;13.17;;
19673;SDS011;9986;50.610;7.230;2023-04-21T00:57:27;15.30;;;13.27;;
19673;SDS011;9986;50.610;7.230;2023-04-21T01:02:38;16.17;;;13.73;;
19673;SDS011;9986;50.610;7.230;2023-04-21T01:05:19;14.20;;;12.50;;
19673;SDS011;9986;50.610;7.230;2023-04-21T01:08:05;16.53;;;14.17;;
19673;SDS011;9986;50.610;7.230;2023-04-21T01:10:45;18.00;;;13.20;;
19673;SDS011;9986;50.610;7.230;2023-04-21T01:13:25;16.20;;;13.13;;
19673;SDS011;9986;50.610;7.230;2023-04-21T01:18:34;16.00;;;13.53;;
19673;SDS011;9986;50.610;7.230;2023-04-21T01:21:14;15.73;;;13.50;;
19673;SDS011;9986;50.610;7.230;2023-04-21T01:26:24;16.27;;;13.33;;
19673;SDS011;9986;50.610;7.230;2023-04-21T01:29:04;16.57;;;14.10;;
19673;SDS011;9986;50.610;7.230;2023-04-21T01:31:44;15.47;;;13.77;;
19673;SDS011;9986;50.610;7.230;2023-04-21T01:34:24;15.03;;;12.97;;
19673;SDS011;9986;50.610;7.230;2023-04-21T01:37:06;16.03;;;12.63;;
19673;SDS011;9986;50.610;7.230;2023-04-21T01:39:48;18.30;;;14.40;;
19673;SDS011;9986;50.610;7.230;2023-04-21T01:42:29;15.57;;;13.87;;
19673;SDS011;9986;50.610;7.230;2023-04-21T01:45:10;15.10;;;12.63;;
19673;SDS011;9986;50.610;7.230;2023-04-21T01:47:50;16.17;;;12.73;;
19673;SDS011;9986;50.610;7.230;2023-04-21T01:50:30;15.73;;;13.57;;
19673;SDS011;9986;50.610;7.230;2023-04-21T01:53:10;15.57;;;12.43;;
19673;SDS011;9986;50.610;7.230;2023-04-21T01:55:50;17.23;;;12.83;;
19673;SDS011;9986;50.610;7.230;2023-04-21T01:58:30;15.80;;;13.13;;
19673;SDS011;9986;50.610;7.230;2023-04-21T02:01:11;17.63;;;12.87;;
19673;SDS011;9986;50.610;7.230;2023-04-21T02:10:04;18.77;;;14.10;;
19673;SDS011;9986;50.610;7.230;2023-04-21T02:12:44;15.77;;;13.80;;
19673;SDS011;9986;50.610;7.230;2023-04-21T02:15:24;16.17;;;13.93;;
19673;SDS011;9986;50.610;7.230;2023-04-21T02:18:04;19.53;;;15.13;;
19673;SDS011;9986;50.610;7.230;2023-04-21T02:20:43;17.90;;;14.13;;
19673;SDS011;9986;50.610;7.230;2023-04-21T02:23:23;18.23;;;14.23;;
19673;SDS011;9986;50.610;7.230;2023-04-21T02:26:12;19.00;;;14.50;;
19673;SDS011;9986;50.610;7.230;2023-04-21T02:28:53;16.00;;;13.83;;
19673;SDS011;9986;50.610;7.230;2023-04-21T02:31:32;17.50;;;14.47;;
19673;SDS011;9986;50.610;7.230;2023-04-21T02:34:13;17.37;;;14.03;;
19673;SDS011;9986;50.610;7.230;2023-04-21T02:36:53;18.63;;;14.33;;
19673;SDS011;9986;50.610;7.230;2023-04-21T02:39:33;18.10;;;15.03;;
19673;SDS011;9986;50.610;7.230;2023-04-21T02:42:14;19.60;;;15.10;;
19673;SDS011;9986;50.610;7.230;2023-04-21T02:44:54;18.53;;;15.57;;
19673;SDS011;9986;50.610;7.230;2023-04-21T02:47:35;19.87;;;15.77;;
19673;SDS011;9986;50.610;7.230;2023-04-21T02:50:16;19.00;;;14.80;;
19673;SDS011;9986;50.610;7.230;2023-04-21T02:52:55;19.07;;;15.40;;
19673;SDS011;9986;50.610;7.230;2023-04-21T02:55:36;18.73;;;15.47;;
19673;SDS011;9986;50.610;7.230;2023-04-21T03:00:49;21.87;;;16.27;;
19673;SDS011;9986;50.610;7.230;2023-04-21T03:03:30;19.43;;;15.70;;
19673;SDS011;9986;50.610;7.230;2023-04-21T03:06:10;19.53;;;16.37;;
19673;SDS011;9986;50.610;7.230;2023-04-21T03:08:50;21.90;;;16.87;;
19673;SDS011;9986;50.610;7.230;2023-04-21T03:11:36;20.10;;;17.33;;
19673;SDS011;9986;50.610;7.230;2023-04-21T03:16:55;22.70;;;17.80;;
19673;SDS011;9986;50.610;7.230;2023-04-21T03:19:36;26.33;;;18.60;;
19673;SDS011;9986;50.610;7.230;2023-04-21T03:22:15;21.40;;;17.50;;
19673;SDS011;9986;50.610;7.230;2023-04-21T03:24:56;23.00;;;17.23;;
19673;SDS011;9986;50.610;7.230;2023-04-21T03:27:35;25.20;;;18.00;;
19673;SDS011;9986;50.610;7.230;2023-04-21T03:30:15;23.33;;;17.13;;
19673;SDS011;9986;50.610;7.230;2023-04-21T03:35:25;24.57;;;18.27;;
19673;SDS011;9986;50.610;7.230;2023-04-21T03:38:05;23.37;;;17.07;;
19673;SDS011;9986;50.610;7.230;2023-04-21T03:40:46;27.40;;;19.40;;
19673;SDS011;9986;50.610;7.230;2023-04-21T03:43:26;26.50;;;20.60;;
19673;SDS011;9986;50.610;7.230;2023-04-21T03:46:05;28.00;;;20.57;;
19673;SDS011;9986;50.610;7.230;2023-04-21T03:48:46;29.67;;;20.50;;
19673;SDS011;9986;50.610;7.230;2023-04-21T03:51:26;29.20;;;20.57;;
19673;SDS011;9986;50.610;7.230;2023-04-21T03:54:06;26.77;;;19.07;;
19673;SDS011;9986;50.610;7.230;2023-04-21T03:56:46;27.33;;;20.93;;
19673;SDS011;9986;50.610;7.230;2023-04-21T03:59:26;26.30;;;19.47;;
19673;SDS011;9986;50.610;7.230;2023-04-21T04:02:06;27.67;;;19.13;;
19673;SDS011;9986;50.610;7.230;2023-04-21T04:04:47;29.57;;;20.27;;
19673;SDS011;9986;50.610;7.230;2023-04-21T04:07:27;25.50;;;18.97;;
19673;SDS011;9986;50.610;7.230;2023-04-21T04:10:07;31.17;;;20.30;;
19673;SDS011;9986;50.610;7.230;2023-04-21T04:12:48;28.47;;;19.27;;
19673;SDS011;9986;50.610;7.230;2023-04-21T04:17:58;25.80;;;19.13;;
19673;SDS011;9986;50.610;7.230;2023-04-21T04:20:37;28.93;;;19.80;;
19673;SDS011;9986;50.610;7.230;2023-04-21T04:23:17;32.17;;;21.67;;
19673;SDS011;9986;50.610;7.230;2023-04-21T04:25:57;28.33;;;20.47;;
19673;SDS011;9986;50.610;7.230;2023-04-21T04:28:36;27.77;;;19.40;;
19673;SDS011;9986;50.610;7.230;2023-04-21T04:31:17;28.17;;;19.47;;
19673;SDS011;9986;50.610;7.230;2023-04-21T04:33:57;29.07;;;19.10;;
19673;SDS011;9986;50.610;7.230;2023-04-21T04:36:37;28.67;;;19.63;;
19673;SDS011;9986;50.610;7.230;2023-04-21T04:39:17;26.47;;;18.77;;
19673;SDS011;9986;50.610;7.230;2023-04-21T04:41:58;26.63;;;18.53;;
19673;SDS011;9986;50.610;7.230;2023-04-21T04:44:38;24.83;;;16.43;;
19673;SDS011;9986;50.610;7.230;2023-04-21T04:49:57;23.90;;;16.67;;
19673;SDS011;9986;50.610;7.230;2023-04-21T04:52:37;26.00;;;18.03;;
19673;SDS011;9986;50.610;7.230;2023-04-21T04:57:47;23.67;;;16.80;;
19673;SDS011;9986;50.610;7.230;2023-04-21T05:02:56;26.73;;;17.77;;
19673;SDS011;9986;50.610;7.230;2023-04-21T05:05:36;23.67;;;17.27;;
19673;SDS011;9986;50.610;7.230;2023-04-21T05:10:46;25.97;;;17.17;;
19673;SDS011;9986;50.610;7.230;2023-04-21T05:13:25;24.67;;;16.00;;
19673;SDS011;9986;50.610;7.230;2023-04-21T05:18:45;25.40;;;18.40;;
19673;SDS011;9986;50.610;7.230;2023-04-21T05:24:06;24.97;;;18.80;;
19673;SDS011;9986;50.610;7.230;2023-04-21T05:26:46;25.27;;;18.53;;
19673;SDS011;9986;50.610;7.230;2023-04-21T05:29:26;29.53;;;20.47;;
19673;SDS011;9986;50.610;7.230;2023-04-21T05:31:57;26.00;;;18.00;;
19673;SDS011;9986;50.610;7.230;2023-04-21T05:37:16;25.43;;;17.57;;
19673;SDS011;9986;50.610;7.230;2023-04-21T05:40:06;24.37;;;16.60;;
19673;SDS011;9986;50.610;7.230;2023-04-21T05:42:47;22.43;;;16.63;;
19673;SDS011;9986;50.610;7.230;2023-04-21T05:45:26;25.30;;;17.00;;
19673;SDS011;9986;50.610;7.230;2023-04-21T05:50:36;24.63;;;18.27;;
19673;SDS011;9986;50.610;7.230;2023-04-21T05:53:15;24.47;;;16.70;;
19673;SDS011;9986;50.610;7.230;2023-04-21T05:55:55;23.70;;;16.67;;
19673;SDS011;9986;50.610;7.230;2023-04-21T05:58:35;26.10;;;16.90;;
19673;SDS011;9986;50.610;7.230;2023-04-21T06:11:46;25.43;;;18.17;;
19673;SDS011;9986;50.610;7.230;2023-04-21T06:14:26;25.57;;;18.60;;
19673;SDS011;9986;50.610;7.230;2023-04-21T06:17:07;24.47;;;17.80;;
19673;SDS011;9986;50.610;7.230;2023-04-21T06:22:17;26.30;;;18.63;;
19673;SDS011;9986;50.610;7.230;2023-04-21T06:27:27;31.03;;;19.47;;
19673;SDS011;9986;50.610;7.230;2023-04-21T06:30:08;28.30;;;19.43;;
19673;SDS011;9986;50.610;7.230;2023-04-21T06:35:27;27.97;;;19.73;;
19673;SDS011;9986;50.610;7.230;2023-04-21T06:40:58;31.00;;;20.57;;
19673;SDS011;9986;50.610;7.230;2023-04-21T06:43:38;26.10;;;19.50;;
19673;SDS011;9986;50.610;7.230;2023-04-21T06:46:19;27.23;;;19.60;;
19673;SDS011;9986;50.610;7.230;2023-04-21T06:49:00;28.93;;;21.13;;
19673;SDS011;9986;50.610;7.230;2023-04-21T06:54:19;30.77;;;21.60;;
19673;SDS011;9986;50.610;7.230;2023-04-21T06:56:59;28.23;;;20.37;;
19673;SDS011;9986;50.610;7.230;2023-04-21T06:59:40;31.80;;;20.97;;
19673;SDS011;9986;50.610;7.230;2023-04-21T07:02:11;27.63;;;19.87;;
19673;SDS011;9986;50.610;7.230;2023-04-21T07:04:57;31.40;;;21.03;;
19673;SDS011;9986;50.610;7.230;2023-04-21T07:07:37;26.17;;;19.80;;
19673;SDS011;9986;50.610;7.230;2023-04-21T07:15:34;29.77;;;20.40;;
19673;SDS011;9986;50.610;7.230;2023-04-21T07:20:46;29.93;;;19.33;;
19673;SDS011;9986;50.610;7.230;2023-04-21T07:23:27;28.47;;;20.30;;
19673;SDS011;9986;50.610;7.230;2023-04-21T07:26:07;25.87;;;19.47;;
19673;SDS011;9986;50.610;7.230;2023-04-21T07:28:48;26.73;;;18.47;;
19673;SDS011;9986;50.610;7.230;2023-04-21T07:31:28;22.80;;;15.97;;
19673;SDS011;9986;50.610;7.230;2023-04-21T07:34:09;21.43;;;16.17;;
19673;SDS011;9986;50.610;7.230;2023-04-21T07:36:55;24.27;;;18.10;;
19673;SDS011;9986;50.610;7.230;2023-04-21T07:42:08;19.97;;;16.50;;
19673;SDS011;9986;50.610;7.230;2023-04-21T07:44:48;23.00;;;16.93;;
19673;SDS011;9986;50.610;7.230;2023-04-21T07:47:29;23.47;;;16.73;;
19673;SDS011;9986;50.610;7.230;2023-04-21T07:55:27;21.63;;;15.73;;
19673;SDS011;9986;50.610;7.230;2023-04-21T07:58:13;21.70;;;15.20;;
19673;SDS011;9986;50.610;7.230;2023-04-21T08:03:23;24.23;;;17.13;;
19673;SDS011;9986;50.610;7.230;2023-04-21T08:06:04;27.43;;;18.73;;
19673;SDS011;9986;50.610;7.230;2023-04-21T08:08:44;21.70;;;16.07;;
19673;SDS011;9986;50.610;7.230;2023-04-21T08:11:25;22.40;;;16.60;;
19673;SDS011;9986;50.610;7.230;2023-04-21T08:14:06;20.37;;;15.03;;
19673;SDS011;9986;50.610;7.230;2023-04-21T08:16:48;23.87;;;16.73;;
19673;SDS011;9986;50.610;7.230;2023-04-21T08:19:29;19.27;;;13.80;;
19673;SDS011;9986;50.610;7.230;2023-04-21T08:22:09;20.40;;;14.83;;
19673;SDS011;9986;50.610;7.230;2023-04-21T08:24:50;19.57;;;14.80;;
19673;SDS011;9986;50.610;7.230;2023-04-21T08:30:08;19.73;;;13.83;;
19673;SDS011;9986;50.610;7.230;2023-04-21T08:35:19;19.30;;;14.97;;
19673;SDS011;9986;50.610;7.230;2023-04-21T08:40:31;19.17;;;14.57;;
19673;SDS011;9986;50.610;7.230;2023-04-21T08:45:41;17.07;;;13.33;;
19673;SDS011;9986;50.610;7.230;2023-04-21T08:48:22;21.13;;;15.33;;
19673;SDS011;9986;50.610;7.230;2023-04-21T08:51:04;18.53;;;13.63;;
19673;SDS011;9986;50.610;7.230;2023-04-21T08:53:45;16.70;;;13.20;;
19673;SDS011;9986;50.610;7.230;2023-04-21T08:56:25;19.50;;;14.07;;
19673;SDS011;9986;50.610;7.230;2023-04-21T08:59:11;18.43;;;12.80;;
19673;SDS011;9986;50.610;7.230;2023-04-21T09:02:08;14.67;;;12.00;;
19673;SDS011;9986;50.610;7.230;2023-04-21T09:04:49;16.60;;;12.60;;
19673;SDS011;9986;50.610;7.230;2023-04-21T09:07:31;16.90;;;12.83;;
19673;SDS011;9986;50.610;7.230;2023-04-21T09:10:10;14.77;;;12.47;;
19673;SDS011;9986;50.610;7.230;2023-04-21T09:12:50;16.03;;;11.60;;
19673;SDS011;9986;50.610;7.230;2023-04-21T09:15:31;15.40;;;11.70;;
19673;SDS011;9986;50.610;7.230;2023-04-21T09:18:17;15.23;;;11.83;;
19673;SDS011;9986;50.610;7.230;2023-04-21T09:21:04;16.73;;;12.07;;
19673;SDS011;9986;50.610;7.230;2023-04-21T09:23:46;15.03;;;12.20;;
19673;SDS011;9986;50.610;7.230;2023-04-21T09:26:26;17.30;;;12.77;;
19673;SDS011;9986;50.610;7.230;2023-04-21T09:29:07;13.57;;;11.40;;
19673;SDS011;9986;50.610;7.230;2023-04-21T09:31:47;14.90;;;11.93;;
19673;SDS011;9986;50.610;7.230;2023-04-21T09:34:28;15.20;;;11.50;;
19673;SDS011;9986;50.610;7.230;2023-04-21T09:37:09;15.23;;;12.20;;
19673;SDS011;9986;50.610;7.230;2023-04-21T09:39:49;13.40;;;10.90;;
19673;SDS011;9986;50.610;7.230;2023-04-21T09:42:30;14.50;;;11.03;;
19673;SDS011;9986;50.610;7.230;2023-04-21T09:45:11;13.73;;;10.47;;
19673;SDS011;9986;50.610;7.230;2023-04-21T09:47:51;16.53;;;12.30;;
19673;SDS011;9986;50.610;7.230;2023-04-21T09:50:32;13.97;;;10.53;;
19673;SDS011;9986;50.610;7.230;2023-04-21T09:55:41;13.80;;;10.47;;
19673;SDS011;9986;50.610;7.230;2023-04-21T10:01:00;12.63;;;10.27;;
19673;SDS011;9986;50.610;7.230;2023-04-21T10:03:43;14.60;;;10.63;;
19673;SDS011;9986;50.610;7.230;2023-04-21T10:06:24;13.80;;;9.87;;
19673;SDS011;9986;50.610;7.230;2023-04-21T10:09:04;13.53;;;10.07;;
19673;SDS011;9986;50.610;7.230;2023-04-21T10:14:24;13.20;;;9.80;;
19673;SDS011;9986;50.610;7.230;2023-04-21T10:17:04;10.30;;;9.07;;
19673;SDS011;9986;50.610;7.230;2023-04-21T10:19:48;10.90;;;8.47;;
19673;SDS011;9986;50.610;7.230;2023-04-21T10:22:28;10.37;;;8.53;;
19673;SDS011;9986;50.610;7.230;2023-04-21T10:25:08;10.03;;;8.60;;
19673;SDS011;9986;50.610;7.230;2023-04-21T10:27:49;10.30;;;9.17;;
19673;SDS011;9986;50.610;7.230;2023-04-21T10:30:29;10.50;;;8.13;;
19673;SDS011;9986;50.610;7.230;2023-04-21T10:33:04;11.07;;;8.87;;
19673;SDS011;9986;50.610;7.230;2023-04-21T10:35:57;10.57;;;8.40;;
19673;SDS011;9986;50.610;7.230;2023-04-21T10:38:40;11.10;;;8.67;;
19673;SDS011;9986;50.610;7.230;2023-04-21T10:41:26;8.37;;;7.00;;
19673;SDS011;9986;50.610;7.230;2023-04-21T10:44:11;9.27;;;7.07;;
19673;SDS011;9986;50.610;7.230;2023-04-21T10:49:29;9.67;;;7.37;;
19673;SDS011;9986;50.610;7.230;2023-04-21T10:55:03;8.73;;;7.00;;
19673;SDS011;9986;50.610;7.230;2023-04-21T10:57:43;7.60;;;6.90;;
19673;SDS011;9986;50.610;7.230;2023-04-21T11:00:23;8.77;;;7.43;;
19673;SDS011;9986;50.610;7.230;2023-04-21T11:05:40;7.30;;;6.57;;
19673;SDS011;9986;50.610;7.230;2023-04-21T11:10:53;7.03;;;6.17;;
19673;SDS011;9986;50.610;7.230;2023-04-21T11:13:32;8.40;;;6.73;;
19673;SDS011;9986;50.610;7.230;2023-04-21T11:16:12;8.60;;;6.80;;
19673;SDS011;9986;50.610;7.230;2023-04-21T11:18:51;7.67;;;6.97;;
19673;SDS011;9986;50.610;7.230;2023-04-21T11:21:32;10.60;;;7.33;;
19673;SDS011;9986;50.610;7.230;2023-04-21T11:24:11;7.40;;;6.63;;
19673;SDS011;9986;50.610;7.230;2023-04-21T11:26:52;6.97;;;6.03;;
19673;SDS011;9986;50.610;7.230;2023-04-21T11:29:32;6.53;;;5.93;;
19673;SDS011;9986;50.610;7.230;2023-04-21T11:32:12;6.43;;;5.20;;
19673;SDS011;9986;50.610;7.230;2023-04-21T11:34:51;5.20;;;4.60;;
19673;SDS011;9986;50.610;7.230;2023-04-21T11:37:33;6.33;;;5.20;;
19673;SDS011;9986;50.610;7.230;2023-04-21T11:40:05;6.37;;;5.67;;
19673;SDS011;9986;50.610;7.230;2023-04-21T11:42:46;4.90;;;4.40;;
19673;SDS011;9986;50.610;7.230;2023-04-21T11:48:12;5.17;;;4.67;;
19673;SDS011;9986;50.610;7.230;2023-04-21T11:50:53;6.07;;;4.90;;
19673;SDS011;9986;50.610;7.230;2023-04-21T11:53:33;5.63;;;4.80;;
19673;SDS011;9986;50.610;7.230;2023-04-21T11:56:17;6.87;;;4.60;;
19673;SDS011;9986;50.610;7.230;2023-04-21T11:58:57;5.60;;;5.10;;
19673;SDS011;9986;50.610;7.230;2023-04-21T12:01:42;5.13;;;4.60;;
19673;SDS011;9986;50.610;7.230;2023-04-21T12:04:24;4.20;;;3.80;;
19673;SDS011;9986;50.610;7.230;2023-04-21T12:12:29;3.60;;;3.30;;
19673;SDS011;9986;50.610;7.230;2023-04-21T12:15:11;3.33;;;3.03;;
19673;SDS011;9986;50.610;7.230;2023-04-21T12:17:52;3.73;;;2.40;;
19673;SDS011;9986;50.610;7.230;2023-04-21T12:23:08;3.70;;;2.67;;
19673;SDS011;9986;50.610;7.230;2023-04-21T12:25:48;3.37;;;2.40;;
19673;SDS011;9986;50.610;7.230;2023-04-21T12:28:30;3.33;;;2.47;;
19673;SDS011;9986;50.610;7.230;2023-04-21T12:31:11;3.10;;;2.80;;
19673;SDS011;9986;50.610;7.230;2023-04-21T12:33:51;4.67;;;4.17;;
19673;SDS011;9986;50.610;7.230;2023-04-21T12:36:32;3.60;;;3.27;;
19673;SDS011;9986;50.610;7.230;2023-04-21T12:39:12;3.13;;;2.83;;
19673;SDS011;9986;50.610;7.230;2023-04-21T12:41:53;5.27;;;4.63;;
19673;SDS011;9986;50.610;7.230;2023-04-21T12:44:33;9.37;;;5.27;;
19673;SDS011;9986;50.610;7.230;2023-04-21T12:49:58;3.83;;;3.50;;
19673;SDS011;9986;50.610;7.230;2023-04-21T12:55:17;5.13;;;4.63;;
19673;SDS011;9986;50.610;7.230;2023-04-21T13:00:36;4.70;;;4.20;;
19673;SDS011;9986;50.610;7.230;2023-04-21T13:03:22;3.70;;;3.37;;
19673;SDS011;9986;50.610;7.230;2023-04-21T13:06:03;4.70;;;4.10;;
19673;SDS011;9986;50.610;7.230;2023-04-21T13:08:44;3.97;;;3.57;;
19673;SDS011;9986;50.610;7.230;2023-04-21T13:11:25;5.10;;;3.73;;
19673;SDS011;9986;50.610;7.230;2023-04-21T13:14:11;5.30;;;4.30;;
19673;SDS011;9986;50.610;7.230;2023-04-21T13:22:34;6.20;;;4.20;;
19673;SDS011;9986;50.610;7.230;2023-04-21T13:27:44;4.60;;;3.63;;
19673;SDS011;9986;50.610;7.230;2023-04-21T13:30:22;6.10;;;4.63;;
19673;SDS011;9986;50.610;7.230;2023-04-21T13:33:02;5.13;;;4.63;;
19673;SDS011;9986;50.610;7.230;2023-04-21T13:35:45;5.33;;;4.67;;
19673;SDS011;9986;50.610;7.230;2023-04-21T13:38:32;5.20;;;4.70;;
19673;SDS011;9986;50.610;7.230;2023-04-21T13:41:12;5.40;;;4.90;;
19673;SDS011;9986;50.610;7.230;2023-04-21T13:43:52;5.70;;;5.10;;
19673;SDS011;9986;50.610;7.230;2023-04-21T13:46:32;7.63;;;5.53;;
19673;SDS011;9986;50.610;7.230;2023-04-21T13:49:12;5.37;;;4.87;;
19673;SDS011;9986;50.610;7.230;2023-04-21T13:54:22;5.10;;;4.60;;
19673;SDS011;9986;50.610;7.230;2023-04-21T13:57:03;6.00;;;5.50;;
19673;SDS011;9986;50.610;7.230;2023-04-21T14:02:12;6.23;;;5.33;;
19673;SDS011;9986;50.610;7.230;2023-04-21T14:04:53;5.47;;;4.90;;
19673;SDS011;9986;50.610;7.230;2023-04-21T14:07:37;6.13;;;5.13;;
19673;SDS011;9986;50.610;7.230;2023-04-21T14:10:19;7.03;;;5.83;;
19673;SDS011;9986;50.610;7.230;2023-04-21T14:15:42;5.90;;;5.13;;
19673;SDS011;9986;50.610;7.230;2023-04-21T14:18:22;6.40;;;5.80;;
19673;SDS011;9986;50.610;7.230;2023-04-21T14:23:31;5.43;;;4.93;;
19673;SDS011;9986;50.610;7.230;2023-04-21T14:28:42;8.60;;;5.43;;
19673;SDS011;9986;50.610;7.230;2023-04-21T14:31:23;6.10;;;4.90;;
19673;SDS011;9986;50.610;7.230;2023-04-21T14:34:04;5.43;;;4.27;;
19673;SDS011;9986;50.610;7.230;2023-04-21T14:36:51;5.23;;;4.50;;
19673;SDS011;9986;50.610;7.230;2023-04-21T14:39:22;5.43;;;4.83;;
19673;SDS011;9986;50.610;7.230;2023-04-21T14:42:09;5.67;;;4.80;;
19673;SDS011;9986;50.610;7.230;2023-04-21T14:49:58;6.10;;;5.50;;
19673;SDS011;9986;50.610;7.230;2023-04-21T14:52:45;4.90;;;4.40;;
19673;SDS011;9986;50.610;7.230;2023-04-21T14:57:54;13.07;;;11.73;;
19673;SDS011;9986;50.610;7.230;2023-04-21T15:03:10;4.77;;;4.37;;
19673;SDS011;9986;50.610;7.230;2023-04-21T15:10:58;4.80;;;4.40;;
19673;SDS011;9986;50.610;7.230;2023-04-21T15:13:38;4.50;;;4.10;;
19673;SDS011;9986;50.610;7.230;2023-04-21T15:18:54;5.23;;;3.93;;
19673;SDS011;9986;50.610;7.230;2023-04-21T15:24:10;4.40;;;4.00;;
19673;SDS011;9986;50.610;7.230;2023-04-21T15:29:19;4.53;;;4.10;;
19673;SDS011;9986;50.610;7.230;2023-04-21T15:32:00;4.57;;;4.13;;
19673;SDS011;9986;50.610;7.230;2023-04-21T15:34:42;4.37;;;3.70;;
19673;SDS011;9986;50.610;7.230;2023-04-21T15:39:51;4.27;;;3.87;;
19673;SDS011;9986;50.610;7.230;2023-04-21T15:45:01;3.93;;;3.57;;
19673;SDS011;9986;50.610;7.230;2023-04-21T15:47:42;3.70;;;3.40;;
19673;SDS011;9986;50.610;7.230;2023-04-21T15:53:01;3.70;;;3.40;;
19673;SDS011;9986;50.610;7.230;2023-04-21T15:55:42;4.07;;;3.67;;
19673;SDS011;9986;50.610;7.230;2023-04-21T16:00:52;4.37;;;3.27;;
19673;SDS011;9986;50.610;7.230;2023-04-21T16:03:38;3.43;;;3.00;;
19673;SDS011;9986;50.610;7.230;2023-04-21T16:06:18;2.70;;;2.50;;
19673;SDS011;9986;50.610;7.230;2023-04-21T16:08:58;6.77;;;5.90;;
19673;SDS011;9986;50.610;7.230;2023-04-21T16:11:38;3.27;;;2.97;;
19673;SDS011;9986;50.610;7.230;2023-04-21T16:16:48;3.37;;;3.07;;
19673;SDS011;9986;50.610;7.230;2023-04-21T16:19:28;3.10;;;2.83;;
19673;SDS011;9986;50.610;7.230;2023-04-21T16:24:38;3.53;;;3.23;;
19673;SDS011;9986;50.610;7.230;2023-04-21T16:27:18;3.80;;;3.07;;
19673;SDS011;9986;50.610;7.230;2023-04-21T16:32:27;2.93;;;2.73;;
19673;SDS011;9986;50.610;7.230;2023-04-21T16:35:11;3.73;;;3.00;;
19673;SDS011;9986;50.610;7.230;2023-04-21T16:37:51;3.53;;;2.63;;
19673;SDS011;9986;50.610;7.230;2023-04-21T16:40:30;3.10;;;2.90;;
19673;SDS011;9986;50.610;7.230;2023-04-21T16:43:11;3.23;;;2.97;;
19673;SDS011;9986;50.610;7.230;2023-04-21T16:45:52;3.23;;;2.73;;
19673;SDS011;9986;50.610;7.230;2023-04-21T16:48:32;3.20;;;2.90;;
19673;SDS011;9986;50.610;7.230;2023-04-21T16:51:12;3.47;;;3.17;;
19673;SDS011;9986;50.610;7.230;2023-04-21T16:53:52;3.30;;;3.00;;
19673;SDS011;9986;50.610;7.230;2023-04-21T16:56:32;3.20;;;3.00;;
19673;SDS011;9986;50.610;7.230;2023-04-21T16:59:12;3.50;;;3.20;;
19673;SDS011;9986;50.610;7.230;2023-04-21T17:01:52;8.63;;;7.47;;
19673;SDS011;9986;50.610;7.230;2023-04-21T17:07:03;3.53;;;3.23;;
19673;SDS011;9986;50.610;7.230;2023-04-21T17:09:43;2.93;;;2.73;;
19673;SDS011;9986;50.610;7.230;2023-04-21T17:12:24;4.23;;;3.13;;
19673;SDS011;9986;50.610;7.230;2023-04-21T17:17:36;3.03;;;2.83;;
19673;SDS011;9986;50.610;7.230;2023-04-21T17:22:47;3.40;;;3.20;;
19673;SDS011;9986;50.610;7.230;2023-04-21T17:28:13;4.03;;;3.70;;
19673;SDS011;9986;50.610;7.230;2023-04-21T17:33:31;4.43;;;3.17;;
19673;SDS011;9986;50.610;7.230;2023-04-21T17:36:11;3.73;;;3.43;;
19673;SDS011;9986;50.610;7.230;2023-04-21T17:38:55;6.57;;;5.97;;
19673;SDS011;9986;50.610;7.230;2023-04-21T17:41:35;5.00;;;3.80;;
19673;SDS011;9986;50.610;7.230;2023-04-21T17:46:48;3.40;;;3.10;;
19673;SDS011;9986;50.610;7.230;2023-04-21T17:49:34;3.80;;;3.50;;
19673;SDS011;9986;50.610;7.230;2023-04-21T17:54:50;4.13;;;3.83;;
19673;SDS011;9986;50.610;7.230;2023-04-21T17:57:36;3.57;;;3.27;;
19673;SDS011;9986;50.610;7.230;2023-04-21T18:00:16;4.77;;;3.57;;
19673;SDS011;9986;50.610;7.230;2023-04-21T18:02:57;3.47;;;3.17;;
19673;SDS011;9986;50.610;7.230;2023-04-21T18:05:37;3.70;;;3.40;;
19673;SDS011;9986;50.610;7.230;2023-04-21T18:08:19;4.03;;;3.63;;
19673;SDS011;9986;50.610;7.230;2023-04-21T18:10:59;5.07;;;3.70;;
19673;SDS011;9986;50.610;7.230;2023-04-21T18:13:40;4.40;;;4.00;;
19673;SDS011;9986;50.610;7.230;2023-04-21T18:16:26;5.07;;;4.33;;
19673;SDS011;9986;50.610;7.230;2023-04-21T18:19:12;5.20;;;4.30;;
19673;SDS011;9986;50.610;7.230;2023-04-21T18:21:52;4.40;;;4.00;;
19673;SDS011;9986;50.610;7.230;2023-04-21T18:27:02;4.17;;;3.73;;
19673;SDS011;9986;50.610;7.230;2023-04-21T18:29:43;4.10;;;3.70;;
19673;SDS011;9986;50.610;7.230;2023-04-21T18:34:53;3.93;;;3.23;;
19673;SDS011;9986;50.610;7.230;2023-04-21T18:37:33;3.00;;;2.80;;
19673;SDS011;9986;50.610;7.230;2023-04-21T18:40:13;3.67;;;3.37;;
19673;SDS011;9986;50.610;7.230;2023-04-21T18:42:55;2.20;;;2.00;;
19673;SDS011;9986;50.610;7.230;2023-04-21T18:45:35;3.00;;;2.60;;
19673;SDS011;9986;50.610;7.230;2023-04-21T18:48:15;4.93;;;2.90;;
19673;SDS011;9986;50.610;7.230;2023-04-21T18:50:55;3.30;;;2.73;;
19673;SDS011;9986;50.610;7.230;2023-04-21T18:53:35;3.27;;;2.97;;
19673;SDS011;9986;50.610;7.230;2023-04-21T18:58:44;3.20;;;2.90;;
19673;SDS011;9986;50.610;7.230;2023-04-21T19:01:23;3.70;;;3.20;;
19673;SDS011;9986;50.610;7.230;2023-04-21T19:06:33;6.27;;;3.30;;
19673;SDS011;9986;50.610;7.230;2023-04-21T19:09:13;4.07;;;2.83;;
19673;SDS011;9986;50.610;7.230;2023-04-21T19:11:53;5.73;;;3.33;;
19673;SDS011;9986;50.610;7.230;2023-04-21T19:14:33;5.63;;;3.07;;
19673;SDS011;9986;50.610;7.230;2023-04-21T19:19:44;3.53;;;3.03;;
19673;SDS011;9986;50.610;7.230;2023-04-21T19:22:24;7.00;;;3.10;;
19673;SDS011;9986;50.610;7.230;2023-04-21T19:25:05;11.10;;;3.03;;
19673;SDS011;9986;50.610;7.230;2023-04-21T19:27:46;6.10;;;3.50;;
19673;SDS011;9986;50.610;7.230;2023-04-21T19:30:32;4.93;;;3.03;;
19673;SDS011;9986;50.610;7.230;2023-04-21T19:33:13;4.33;;;2.67;;
19673;SDS011;9986;50.610;7.230;2023-04-21T19:35:52;4.27;;;2.90;;
19673;SDS011;9986;50.610;7.230;2023-04-21T19:38:32;3.33;;;3.03;;
19673;SDS011;9986;50.610;7.230;2023-04-21T19:41:12;3.07;;;2.87;;
19673;SDS011;9986;50.610;7.230;2023-04-21T19:43:55;3.00;;;2.80;;
19673;SDS011;9986;50.610;7.230;2023-04-21T19:49:03;3.07;;;2.63;;
19673;SDS011;9986;50.610;7.230;2023-04-21T19:51:43;3.07;;;2.77;;
19673;SDS011;9986;50.610;7.230;2023-04-21T19:54:23;3.63;;;2.70;;
19673;SDS011;9986;50.610;7.230;2023-04-21T19:57:03;2.53;;;2.20;;
19673;SDS011;9986;50.610;7.230;2023-04-21T19:59:49;2.20;;;2.10;;